sensor_id;sensor_type;location;lat;lon;timestamp;pressure;altitude;pressure_sealevel;temperature;humidity
76834;BME280;65793;42.678;23.332;2022-12-18T00:01:33;95601.59;;;5.36;100.00
76834;BME280;65793;42.678;23.332;2022-12-18T00:04:36;95630.34;;;5.27;100.00
76834;BME280;65793;42.678;23.332;2022-12-18T00:07:38;95615.69;;;5.18;100.00
76834;BME280;65793;42.678;23.332;2022-12-18T00:10:41;95620.72;;;5.20;100.00
76834;BME280;65793;42.678;23.332;2022-12-18T00:13:43;95620.09;;;5.10;100.00
76834;BME280;65793;42.678;23.332;2022-12-18T00:16:46;95622.41;;;4.97;100.00
76834;BME280;65793;42.678;23.332;2022-12-18T00:19:48;95619.78;;;4.97;100.00
76834;BME280;65793;42.678;23.332;2022-12-18T00:22:50;95630.22;;;4.97;100.00
76834;BME280;65793;42.678;23.332;2022-12-18T00:25:53;95635.13;;;5.00;100.00
76834;BME280;65793;42.678;23.332;2022-12-18T00:28:57;95633.66;;;4.89;100.00
76834;BME280;65793;42.678;23.332;2022-12-18T00:31:59;95642.47;;;4.80;100.00
76834;BME280;65793;42.678;23.332;2022-12-18T00:35:01;95635.47;;;4.72;100.00
76834;BME280;65793;42.678;23.332;2022-12-18T00:38:03;95647.84;;;4.78;100.00
76834;BME280;65793;42.678;23.332;2022-12-18T00:41:08;95629.44;;;4.80;100.00
76834;BME280;65793;42.678;23.332;2022-12-18T00:44:11;95652.75;;;4.81;100.00
76834;BME280;65793;42.678;23.332;2022-12-18T00:47:12;95645.09;;;4.72;100.00
76834;BME280;65793;42.678;23.332;2022-12-18T00:50:14;95649.66;;;4.70;100.00
76834;BME280;65793;42.678;23.332;2022-12-18T00:53:17;95641.31;;;4.66;100.00
76834;BME280;65793;42.678;23.332;2022-12-18T00:56:20;95643.16;;;4.66;100.00
76834;BME280;65793;42.678;23.332;2022-12-18T00:59:22;95657.78;;;4.67;100.00
76834;BME280;65793;42.678;23.332;2022-12-18T01:02:25;95664.81;;;4.58;100.00
76834;BME280;65793;42.678;23.332;2022-12-18T01:05:28;95649.97;;;4.59;100.00
76834;BME280;65793;42.678;23.332;2022-12-18T01:08:30;95656.81;;;4.51;100.00
76834;BME280;65793;42.678;23.332;2022-12-18T01:11:33;95658.59;;;4.51;100.00
76834;BME280;65793;42.678;23.332;2022-12-18T01:14:36;95671.63;;;4.35;100.00
76834;BME280;65793;42.678;23.332;2022-12-18T01:17:38;95673.91;;;4.30;100.00
76834;BME280;65793;42.678;23.332;2022-12-18T01:20:40;95667.84;;;4.13;100.00
76834;BME280;65793;42.678;23.332;2022-12-18T01:23:42;95677.28;;;4.14;100.00
76834;BME280;65793;42.678;23.332;2022-12-18T01:26:45;95678.56;;;4.02;100.00
76834;BME280;65793;42.678;23.332;2022-12-18T01:29:48;95679.38;;;4.02;100.00
76834;BME280;65793;42.678;23.332;2022-12-18T01:32:53;95672.50;;;3.93;100.00
76834;BME280;65793;42.678;23.332;2022-12-18T01:35:55;95687.66;;;3.98;100.00
76834;BME280;65793;42.678;23.332;2022-12-18T01:38:58;95691.72;;;3.92;100.00
76834;BME280;65793;42.678;23.332;2022-12-18T01:42:08;95702.16;;;3.92;100.00
76834;BME280;65793;42.678;23.332;2022-12-18T01:45:22;95688.59;;;3.89;100.00
76834;BME280;65793;42.678;23.332;2022-12-18T01:48:25;95693.00;;;3.88;100.00
76834;BME280;65793;42.678;23.332;2022-12-18T01:51:27;95699.84;;;3.89;100.00
76834;BME280;65793;42.678;23.332;2022-12-18T01:54:31;95699.16;;;3.79;100.00
76834;BME280;65793;42.678;23.332;2022-12-18T01:57:35;95695.25;;;3.75;100.00
76834;BME280;65793;42.678;23.332;2022-12-18T02:00:38;95708.13;;;3.76;100.00
76834;BME280;65793;42.678;23.332;2022-12-18T02:03:40;95711.16;;;3.72;100.00
76834;BME280;65793;42.678;23.332;2022-12-18T02:06:43;95711.53;;;3.77;100.00
76834;BME280;65793;42.678;23.332;2022-12-18T02:09:46;95705.66;;;3.75;100.00
76834;BME280;65793;42.678;23.332;2022-12-18T02:12:52;95706.47;;;3.75;100.00
76834;BME280;65793;42.678;23.332;2022-12-18T02:15:59;95709.25;;;3.74;100.00
76834;BME280;65793;42.678;23.332;2022-12-18T02:19:06;95720.63;;;3.73;100.00
76834;BME280;65793;42.678;23.332;2022-12-18T02:22:18;95726.47;;;3.67;100.00
76834;BME280;65793;42.678;23.332;2022-12-18T02:25:26;95726.44;;;3.59;100.00
76834;BME280;65793;42.678;23.332;2022-12-18T02:28:35;95728.25;;;3.66;100.00
76834;BME280;65793;42.678;23.332;2022-12-18T02:31:41;95734.78;;;3.70;100.00
76834;BME280;65793;42.678;23.332;2022-12-18T02:34:45;95722.91;;;3.68;100.00
76834;BME280;65793;42.678;23.332;2022-12-18T02:37:49;95724.00;;;3.65;100.00
76834;BME280;65793;42.678;23.332;2022-12-18T02:40:55;95732.13;;;3.62;100.00
76834;BME280;65793;42.678;23.332;2022-12-18T02:44:00;95733.41;;;3.58;100.00
76834;BME280;65793;42.678;23.332;2022-12-18T02:47:05;95730.16;;;3.56;100.00
76834;BME280;65793;42.678;23.332;2022-12-18T02:50:07;95726.19;;;3.52;100.00
76834;BME280;65793;42.678;23.332;2022-12-18T02:53:14;95739.41;;;3.51;100.00
76834;BME280;65793;42.678;23.332;2022-12-18T02:56:20;95725.19;;;3.45;100.00
76834;BME280;65793;42.678;23.332;2022-12-18T02:59:27;95726.69;;;3.48;100.00
76834;BME280;65793;42.678;23.332;2022-12-18T03:02:35;95733.81;;;3.46;100.00
76834;BME280;65793;42.678;23.332;2022-12-18T03:05:41;95743.66;;;3.52;100.00
76834;BME280;65793;42.678;23.332;2022-12-18T03:08:46;95752.19;;;3.44;100.00
76834;BME280;65793;42.678;23.332;2022-12-18T03:11:51;95738.88;;;3.47;100.00
76834;BME280;65793;42.678;23.332;2022-12-18T03:15:16;95742.41;;;3.38;100.00
76834;BME280;65793;42.678;23.332;2022-12-18T03:18:24;95750.38;;;3.36;100.00
76834;BME280;65793;42.678;23.332;2022-12-18T03:21:28;95754.97;;;3.43;100.00
76834;BME280;65793;42.678;23.332;2022-12-18T03:24:32;95760.00;;;3.44;100.00
76834;BME280;65793;42.678;23.332;2022-12-18T03:27:36;95755.56;;;3.36;100.00
76834;BME280;65793;42.678;23.332;2022-12-18T03:30:45;95761.91;;;3.34;100.00
76834;BME280;65793;42.678;23.332;2022-12-18T03:33:51;95769.06;;;3.32;100.00
76834;BME280;65793;42.678;23.332;2022-12-18T03:36:57;95769.56;;;3.35;100.00
76834;BME280;65793;42.678;23.332;2022-12-18T03:40:02;95778.25;;;3.44;100.00
76834;BME280;65793;42.678;23.332;2022-12-18T03:43:08;95778.44;;;3.43;100.00
76834;BME280;65793;42.678;23.332;2022-12-18T03:46:15;95788.84;;;3.43;100.00
76834;BME280;65793;42.678;23.332;2022-12-18T03:49:21;95787.78;;;3.35;100.00
76834;BME280;65793;42.678;23.332;2022-12-18T03:52:28;95795.59;;;3.35;100.00
76834;BME280;65793;42.678;23.332;2022-12-18T03:55:32;95800.22;;;3.42;100.00
76834;BME280;65793;42.678;23.332;2022-12-18T03:58:38;95797.09;;;3.38;100.00
76834;BME280;65793;42.678;23.332;2022-12-18T04:01:51;95800.50;;;3.38;100.00
76834;BME280;65793;42.678;23.332;2022-12-18T04:04:56;95802.00;;;3.41;100.00
76834;BME280;65793;42.678;23.332;2022-12-18T04:08:01;95802.81;;;3.42;100.00
76834;BME280;65793;42.678;23.332;2022-12-18T04:11:05;95792.28;;;3.25;100.00
76834;BME280;65793;42.678;23.332;2022-12-18T04:14:08;95806.34;;;3.32;100.00
76834;BME280;65793;42.678;23.332;2022-12-18T04:17:12;95810.25;;;3.36;100.00
76834;BME280;65793;42.678;23.332;2022-12-18T04:20:14;95823.22;;;3.28;100.00
76834;BME280;65793;42.678;23.332;2022-12-18T04:23:18;95820.94;;;3.25;100.00
76834;BME280;65793;42.678;23.332;2022-12-18T04:26:20;95820.13;;;3.25;100.00
76834;BME280;65793;42.678;23.332;2022-12-18T04:29:54;95835.63;;;3.17;100.00
76834;BME280;65793;42.678;23.332;2022-12-18T04:32:58;95830.81;;;3.22;100.00
76834;BME280;65793;42.678;23.332;2022-12-18T04:36:00;95837.00;;;3.21;100.00
76834;BME280;65793;42.678;23.332;2022-12-18T04:39:02;95834.25;;;3.22;100.00
76834;BME280;65793;42.678;23.332;2022-12-18T04:42:05;95844.78;;;3.21;100.00
76834;BME280;65793;42.678;23.332;2022-12-18T04:45:08;95848.50;;;3.18;100.00
76834;BME280;65793;42.678;23.332;2022-12-18T04:48:12;95853.63;;;3.10;100.00
76834;BME280;65793;42.678;23.332;2022-12-18T04:51:14;95853.78;;;3.09;100.00
76834;BME280;65793;42.678;23.332;2022-12-18T04:54:16;95861.31;;;3.12;100.00
76834;BME280;65793;42.678;23.332;2022-12-18T04:57:18;95850.91;;;3.12;100.00
76834;BME280;65793;42.678;23.332;2022-12-18T05:00:20;95861.69;;;2.99;100.00
76834;BME280;65793;42.678;23.332;2022-12-18T05:03:24;95868.50;;;3.00;100.00
76834;BME280;65793;42.678;23.332;2022-12-18T05:06:26;95863.75;;;2.95;100.00
76834;BME280;65793;42.678;23.332;2022-12-18T05:09:29;95868.22;;;3.03;100.00
76834;BME280;65793;42.678;23.332;2022-12-18T05:12:31;95873.78;;;2.90;100.00
76834;BME280;65793;42.678;23.332;2022-12-18T05:15:33;95881.22;;;2.85;100.00
76834;BME280;65793;42.678;23.332;2022-12-18T05:18:36;95881.84;;;2.70;100.00
76834;BME280;65793;42.678;23.332;2022-12-18T05:21:38;95888.56;;;2.72;100.00
76834;BME280;65793;42.678;23.332;2022-12-18T05:24:40;95887.28;;;2.76;100.00
76834;BME280;65793;42.678;23.332;2022-12-18T05:27:42;95901.78;;;2.79;100.00
76834;BME280;65793;42.678;23.332;2022-12-18T05:30:47;95906.09;;;2.70;100.00
76834;BME280;65793;42.678;23.332;2022-12-18T05:33:50;95887.09;;;2.60;100.00
76834;BME280;65793;42.678;23.332;2022-12-18T05:36:52;95902.66;;;2.70;100.00
76834;BME280;65793;42.678;23.332;2022-12-18T05:39:54;95904.81;;;2.74;100.00
76834;BME280;65793;42.678;23.332;2022-12-18T05:42:56;95918.38;;;2.78;100.00
76834;BME280;65793;42.678;23.332;2022-12-18T05:46:02;95919.31;;;2.77;100.00
76834;BME280;65793;42.678;23.332;2022-12-18T05:49:06;95905.41;;;2.68;100.00
76834;BME280;65793;42.678;23.332;2022-12-18T05:52:07;95918.53;;;2.67;100.00
76834;BME280;65793;42.678;23.332;2022-12-18T05:55:10;95913.66;;;2.63;100.00
76834;BME280;65793;42.678;23.332;2022-12-18T05:58:12;95926.84;;;2.52;100.00
76834;BME280;65793;42.678;23.332;2022-12-18T06:01:15;95922.88;;;2.48;100.00
76834;BME280;65793;42.678;23.332;2022-12-18T06:04:19;95929.81;;;2.57;100.00
76834;BME280;65793;42.678;23.332;2022-12-18T06:07:21;95934.75;;;2.60;100.00
76834;BME280;65793;42.678;23.332;2022-12-18T06:10:23;95942.13;;;2.55;100.00
76834;BME280;65793;42.678;23.332;2022-12-18T06:13:25;95940.75;;;2.61;100.00
76834;BME280;65793;42.678;23.332;2022-12-18T06:16:27;95935.59;;;2.51;100.00
76834;BME280;65793;42.678;23.332;2022-12-18T06:19:31;95931.59;;;2.57;100.00
76834;BME280;65793;42.678;23.332;2022-12-18T06:22:33;95946.81;;;2.52;100.00
76834;BME280;65793;42.678;23.332;2022-12-18T06:25:37;95941.03;;;2.58;100.00
76834;BME280;65793;42.678;23.332;2022-12-18T06:28:39;95948.97;;;2.56;100.00
76834;BME280;65793;42.678;23.332;2022-12-18T06:31:42;95946.53;;;2.55;100.00
76834;BME280;65793;42.678;23.332;2022-12-18T06:34:45;95963.22;;;2.62;100.00
76834;BME280;65793;42.678;23.332;2022-12-18T06:37:47;95957.44;;;2.68;100.00
76834;BME280;65793;42.678;23.332;2022-12-18T06:40:49;95958.97;;;2.61;100.00
76834;BME280;65793;42.678;23.332;2022-12-18T06:43:52;95970.16;;;2.71;100.00
76834;BME280;65793;42.678;23.332;2022-12-18T06:46:55;95968.41;;;2.62;100.00
76834;BME280;65793;42.678;23.332;2022-12-18T06:49:59;95967.84;;;2.68;100.00
76834;BME280;65793;42.678;23.332;2022-12-18T06:53:01;95986.19;;;2.67;100.00
76834;BME280;65793;42.678;23.332;2022-12-18T06:56:05;95979.88;;;2.69;100.00
76834;BME280;65793;42.678;23.332;2022-12-18T06:59:07;95977.28;;;2.69;100.00
76834;BME280;65793;42.678;23.332;2022-12-18T07:02:10;95980.94;;;2.76;100.00
76834;BME280;65793;42.678;23.332;2022-12-18T07:05:14;95983.28;;;2.79;100.00
76834;BME280;65793;42.678;23.332;2022-12-18T07:08:16;95981.50;;;2.80;100.00
76834;BME280;65793;42.678;23.332;2022-12-18T07:11:18;95987.50;;;2.80;100.00
76834;BME280;65793;42.678;23.332;2022-12-18T07:14:20;95999.28;;;2.75;100.00
76834;BME280;65793;42.678;23.332;2022-12-18T07:17:23;95995.47;;;2.79;100.00
76834;BME280;65793;42.678;23.332;2022-12-18T07:20:26;95988.75;;;2.76;100.00
76834;BME280;65793;42.678;23.332;2022-12-18T07:23:28;95988.06;;;2.74;100.00
76834;BME280;65793;42.678;23.332;2022-12-18T07:26:32;95989.09;;;2.63;100.00
76834;BME280;65793;42.678;23.332;2022-12-18T07:29:34;95984.72;;;2.54;100.00
76834;BME280;65793;42.678;23.332;2022-12-18T07:32:36;95998.16;;;2.50;100.00
76834;BME280;65793;42.678;23.332;2022-12-18T07:35:41;95996.22;;;2.52;100.00
76834;BME280;65793;42.678;23.332;2022-12-18T07:38:46;96007.16;;;2.55;100.00
76834;BME280;65793;42.678;23.332;2022-12-18T07:41:47;96025.50;;;2.63;100.00
76834;BME280;65793;42.678;23.332;2022-12-18T07:45:10;96018.00;;;2.51;100.00
76834;BME280;65793;42.678;23.332;2022-12-18T07:48:12;96010.19;;;2.51;100.00
76834;BME280;65793;42.678;23.332;2022-12-18T07:51:19;96014.19;;;2.45;100.00
76834;BME280;65793;42.678;23.332;2022-12-18T07:54:21;96026.06;;;2.48;100.00
76834;BME280;65793;42.678;23.332;2022-12-18T07:57:23;96018.69;;;2.43;100.00
76834;BME280;65793;42.678;23.332;2022-12-18T08:00:26;96025.25;;;2.38;100.00
76834;BME280;65793;42.678;23.332;2022-12-18T08:03:28;96041.53;;;2.40;100.00
76834;BME280;65793;42.678;23.332;2022-12-18T08:06:31;96055.38;;;2.31;100.00
76834;BME280;65793;42.678;23.332;2022-12-18T08:09:33;96059.22;;;2.36;100.00
76834;BME280;65793;42.678;23.332;2022-12-18T08:12:35;96052.25;;;2.27;100.00
76834;BME280;65793;42.678;23.332;2022-12-18T08:15:37;96055.38;;;2.40;100.00
76834;BME280;65793;42.678;23.332;2022-12-18T08:18:39;96062.34;;;2.20;100.00
76834;BME280;65793;42.678;23.332;2022-12-18T08:21:44;96071.94;;;2.20;100.00
76834;BME280;65793;42.678;23.332;2022-12-18T08:24:46;96069.75;;;2.15;100.00
76834;BME280;65793;42.678;23.332;2022-12-18T08:27:48;96077.97;;;2.20;100.00
76834;BME280;65793;42.678;23.332;2022-12-18T08:30:51;96083.59;;;2.35;100.00
76834;BME280;65793;42.678;23.332;2022-12-18T08:37:25;96086.72;;;2.29;100.00
76834;BME280;65793;42.678;23.332;2022-12-18T08:40:27;96087.13;;;2.44;100.00
76834;BME280;65793;42.678;23.332;2022-12-18T08:43:30;96082.63;;;2.36;100.00
76834;BME280;65793;42.678;23.332;2022-12-18T08:50:22;96086.44;;;2.42;100.00
76834;BME280;65793;42.678;23.332;2022-12-18T08:53:38;96086.44;;;2.42;100.00
76834;BME280;65793;42.678;23.332;2022-12-18T08:56:40;96096.44;;;2.37;100.00
76834;BME280;65793;42.678;23.332;2022-12-18T09:00:30;96085.88;;;2.48;100.00
76834;BME280;65793;42.678;23.332;2022-12-18T09:03:41;96085.59;;;2.51;100.00
76834;BME280;65793;42.678;23.332;2022-12-18T09:06:45;96083.94;;;2.69;100.00
76834;BME280;65793;42.678;23.332;2022-12-18T09:09:51;96079.00;;;2.66;100.00
76834;BME280;65793;42.678;23.332;2022-12-18T09:13:12;96083.84;;;2.51;100.00
76834;BME280;65793;42.678;23.332;2022-12-18T09:16:15;96067.38;;;2.60;100.00
76834;BME280;65793;42.678;23.332;2022-12-18T09:19:18;96061.22;;;2.61;100.00
76834;BME280;65793;42.678;23.332;2022-12-18T09:30:19;96065.28;;;2.74;100.00
76834;BME280;65793;42.678;23.332;2022-12-18T09:36:45;96078.16;;;2.75;100.00
76834;BME280;65793;42.678;23.332;2022-12-18T09:39:48;96076.13;;;2.79;100.00
76834;BME280;65793;42.678;23.332;2022-12-18T09:42:54;96082.13;;;2.79;100.00
76834;BME280;65793;42.678;23.332;2022-12-18T09:46:03;96085.44;;;2.81;100.00
76834;BME280;65793;42.678;23.332;2022-12-18T09:49:19;96071.03;;;2.87;100.00
76834;BME280;65793;42.678;23.332;2022-12-18T09:52:26;96057.56;;;2.91;100.00
76834;BME280;65793;42.678;23.332;2022-12-18T09:55:30;96064.81;;;3.07;100.00
76834;BME280;65793;42.678;23.332;2022-12-18T09:58:36;96065.75;;;3.06;100.00
76834;BME280;65793;42.678;23.332;2022-12-18T10:01:41;96061.91;;;3.00;100.00
76834;BME280;65793;42.678;23.332;2022-12-18T10:04:43;96068.16;;;2.90;100.00
76834;BME280;65793;42.678;23.332;2022-12-18T10:07:52;96062.78;;;2.91;100.00
76834;BME280;65793;42.678;23.332;2022-12-18T10:11:43;96054.38;;;3.07;100.00
76834;BME280;65793;42.678;23.332;2022-12-18T10:15:17;96047.78;;;3.13;100.00
76834;BME280;65793;42.678;23.332;2022-12-18T10:23:21;96064.38;;;3.02;100.00
76834;BME280;65793;42.678;23.332;2022-12-18T10:26:34;96068.78;;;3.01;100.00
76834;BME280;65793;42.678;23.332;2022-12-18T10:29:50;96062.22;;;2.97;100.00
76834;BME280;65793;42.678;23.332;2022-12-18T10:33:37;96064.63;;;3.09;100.00
76834;BME280;65793;42.678;23.332;2022-12-18T10:44:44;96048.69;;;3.21;100.00
76834;BME280;65793;42.678;23.332;2022-12-18T10:47:48;96060.75;;;3.22;100.00
76834;BME280;65793;42.678;23.332;2022-12-18T10:50:53;96055.41;;;3.24;100.00
76834;BME280;65793;42.678;23.332;2022-12-18T10:53:57;96056.31;;;3.32;100.00
76834;BME280;65793;42.678;23.332;2022-12-18T10:57:40;96057.94;;;3.61;100.00
76834;BME280;65793;42.678;23.332;2022-12-18T11:00:44;96051.19;;;3.68;100.00
76834;BME280;65793;42.678;23.332;2022-12-18T11:03:46;96051.94;;;3.33;100.00
76834;BME280;65793;42.678;23.332;2022-12-18T11:07:01;96056.22;;;3.24;100.00
76834;BME280;65793;42.678;23.332;2022-12-18T11:10:04;96050.34;;;3.22;100.00
76834;BME280;65793;42.678;23.332;2022-12-18T11:13:10;96052.50;;;3.54;100.00
76834;BME280;65793;42.678;23.332;2022-12-18T11:16:19;96053.88;;;3.31;100.00
76834;BME280;65793;42.678;23.332;2022-12-18T11:23:12;96051.38;;;3.57;100.00
76834;BME280;65793;42.678;23.332;2022-12-18T11:26:16;96063.69;;;3.37;100.00
76834;BME280;65793;42.678;23.332;2022-12-18T11:29:34;96058.19;;;3.40;100.00
76834;BME280;65793;42.678;23.332;2022-12-18T11:32:43;96051.50;;;3.37;100.00
76834;BME280;65793;42.678;23.332;2022-12-18T11:35:55;96051.81;;;3.52;100.00
76834;BME280;65793;42.678;23.332;2022-12-18T11:38:59;96049.16;;;3.62;100.00
76834;BME280;65793;42.678;23.332;2022-12-18T11:42:10;96054.63;;;3.41;100.00
76834;BME280;65793;42.678;23.332;2022-12-18T11:45:27;96065.16;;;3.49;100.00
76834;BME280;65793;42.678;23.332;2022-12-18T11:48:36;96059.50;;;3.54;100.00
76834;BME280;65793;42.678;23.332;2022-12-18T11:51:41;96046.31;;;3.55;100.00
76834;BME280;65793;42.678;23.332;2022-12-18T11:54:46;96053.84;;;3.58;100.00
76834;BME280;65793;42.678;23.332;2022-12-18T11:57:52;96058.13;;;3.77;100.00
76834;BME280;65793;42.678;23.332;2022-12-18T12:01:14;96045.88;;;3.42;100.00
76834;BME280;65793;42.678;23.332;2022-12-18T12:04:40;96047.81;;;3.58;100.00
76834;BME280;65793;42.678;23.332;2022-12-18T12:07:46;96042.66;;;3.48;100.00
76834;BME280;65793;42.678;23.332;2022-12-18T12:10:57;96047.19;;;3.46;100.00
76834;BME280;65793;42.678;23.332;2022-12-18T12:14:13;96054.88;;;3.48;100.00
76834;BME280;65793;42.678;23.332;2022-12-18T12:17:21;96047.88;;;3.48;100.00
76834;BME280;65793;42.678;23.332;2022-12-18T12:20:32;96053.91;;;3.49;100.00
76834;BME280;65793;42.678;23.332;2022-12-18T12:23:52;96058.91;;;3.60;100.00
76834;BME280;65793;42.678;23.332;2022-12-18T12:27:11;96046.78;;;3.51;100.00
76834;BME280;65793;42.678;23.332;2022-12-18T12:30:24;96062.50;;;3.59;100.00
76834;BME280;65793;42.678;23.332;2022-12-18T12:33:33;96054.81;;;3.57;100.00
76834;BME280;65793;42.678;23.332;2022-12-18T12:36:41;96065.75;;;3.61;100.00
76834;BME280;65793;42.678;23.332;2022-12-18T12:39:48;96063.44;;;3.58;100.00
76834;BME280;65793;42.678;23.332;2022-12-18T12:42:51;96061.97;;;3.73;100.00
76834;BME280;65793;42.678;23.332;2022-12-18T12:46:15;96055.59;;;3.67;100.00
76834;BME280;65793;42.678;23.332;2022-12-18T12:49:20;96056.22;;;3.69;100.00
76834;BME280;65793;42.678;23.332;2022-12-18T12:52:32;96058.97;;;3.95;100.00
76834;BME280;65793;42.678;23.332;2022-12-18T12:55:42;96059.38;;;3.73;100.00
76834;BME280;65793;42.678;23.332;2022-12-18T12:58:46;96069.53;;;3.76;100.00
76834;BME280;65793;42.678;23.332;2022-12-18T13:01:52;96066.56;;;3.61;100.00
76834;BME280;65793;42.678;23.332;2022-12-18T13:04:58;96076.50;;;3.75;100.00
76834;BME280;65793;42.678;23.332;2022-12-18T13:08:05;96073.44;;;3.80;100.00
76834;BME280;65793;42.678;23.332;2022-12-18T13:11:21;96079.31;;;3.64;100.00
76834;BME280;65793;42.678;23.332;2022-12-18T13:14:47;96089.31;;;3.69;100.00
76834;BME280;65793;42.678;23.332;2022-12-18T13:17:53;96086.81;;;3.50;100.00
76834;BME280;65793;42.678;23.332;2022-12-18T13:21:10;96091.00;;;3.60;100.00
76834;BME280;65793;42.678;23.332;2022-12-18T13:24:24;96099.09;;;3.57;100.00
76834;BME280;65793;42.678;23.332;2022-12-18T13:30:56;96103.50;;;3.57;100.00
76834;BME280;65793;42.678;23.332;2022-12-18T13:34:14;96112.75;;;3.42;100.00
76834;BME280;65793;42.678;23.332;2022-12-18T13:37:43;96099.75;;;3.42;100.00
76834;BME280;65793;42.678;23.332;2022-12-18T13:41:00;96095.59;;;3.49;100.00
76834;BME280;65793;42.678;23.332;2022-12-18T13:51:13;96113.97;;;3.47;100.00
76834;BME280;65793;42.678;23.332;2022-12-18T14:02:00;96217.44;;;19.09;100.00
76834;BME280;65793;42.678;23.332;2022-12-18T19:15:22;96349.06;;;22.47;100.00
76834;BME280;65793;42.678;23.332;2022-12-18T19:18:24;96343.47;;;21.95;100.00
76834;BME280;65793;42.678;23.332;2022-12-18T19:21:26;96348.47;;;21.60;100.00
76834;BME280;65793;42.678;23.332;2022-12-18T19:24:28;96358.03;;;21.29;100.00
76834;BME280;65793;42.678;23.332;2022-12-18T19:27:31;96368.75;;;21.12;100.00
76834;BME280;65793;42.678;23.332;2022-12-18T19:30:38;96359.84;;;21.07;100.00
76834;BME280;65793;42.678;23.332;2022-12-18T19:33:42;96365.16;;;21.01;100.00
76834;BME280;65793;42.678;23.332;2022-12-18T19:36:44;96367.84;;;21.01;100.00
76834;BME280;65793;42.678;23.332;2022-12-18T19:39:46;96364.41;;;21.06;100.00
76834;BME280;65793;42.678;23.332;2022-12-18T19:42:49;96368.13;;;21.05;100.00
76834;BME280;65793;42.678;23.332;2022-12-18T19:45:54;96387.47;;;21.07;100.00
76834;BME280;65793;42.678;23.332;2022-12-18T19:48:58;96390.97;;;21.08;100.00
76834;BME280;65793;42.678;23.332;2022-12-18T19:52:00;96390.88;;;21.02;100.00
76834;BME280;65793;42.678;23.332;2022-12-18T19:55:03;96390.47;;;21.11;100.00
76834;BME280;65793;42.678;23.332;2022-12-18T19:58:05;96397.19;;;21.13;100.00
76834;BME280;65793;42.678;23.332;2022-12-18T20:01:11;96388.09;;;21.14;100.00
76834;BME280;65793;42.678;23.332;2022-12-18T20:04:13;96395.28;;;21.09;100.00
76834;BME280;65793;42.678;23.332;2022-12-18T20:07:15;96400.53;;;21.03;100.00
76834;BME280;65793;42.678;23.332;2022-12-18T20:10:18;96398.72;;;20.87;100.00
76834;BME280;65793;42.678;23.332;2022-12-18T20:13:20;96401.16;;;20.89;100.00
76834;BME280;65793;42.678;23.332;2022-12-18T20:16:24;96397.59;;;20.83;100.00
76834;BME280;65793;42.678;23.332;2022-12-18T20:19:27;96394.34;;;20.81;100.00
76834;BME280;65793;42.678;23.332;2022-12-18T20:22:29;96396.94;;;20.76;100.00
76834;BME280;65793;42.678;23.332;2022-12-18T20:25:31;96390.13;;;20.69;100.00
76834;BME280;65793;42.678;23.332;2022-12-18T20:28:33;96400.66;;;20.58;100.00
76834;BME280;65793;42.678;23.332;2022-12-18T20:31:36;96403.75;;;20.50;100.00
76834;BME280;65793;42.678;23.332;2022-12-18T20:34:38;96418.13;;;20.44;100.00
76834;BME280;65793;42.678;23.332;2022-12-18T20:37:40;96424.69;;;20.37;100.00
76834;BME280;65793;42.678;23.332;2022-12-18T20:40:42;96420.00;;;20.32;100.00
76834;BME280;65793;42.678;23.332;2022-12-18T20:43:45;96422.03;;;20.25;100.00
76834;BME280;65793;42.678;23.332;2022-12-18T20:46:49;96418.94;;;20.16;100.00
76834;BME280;65793;42.678;23.332;2022-12-18T20:49:51;96437.91;;;20.15;100.00
76834;BME280;65793;42.678;23.332;2022-12-18T20:52:53;96439.69;;;20.09;100.00
76834;BME280;65793;42.678;23.332;2022-12-18T20:55:55;96436.66;;;20.06;100.00
76834;BME280;65793;42.678;23.332;2022-12-18T20:58:58;96437.47;;;20.06;100.00
76834;BME280;65793;42.678;23.332;2022-12-18T21:02:02;96439.09;;;20.07;100.00
76834;BME280;65793;42.678;23.332;2022-12-18T21:05:04;96433.63;;;20.14;100.00
76834;BME280;65793;42.678;23.332;2022-12-18T21:08:07;96441.81;;;20.24;100.00
76834;BME280;65793;42.678;23.332;2022-12-18T21:11:14;96433.56;;;20.25;100.00
76834;BME280;65793;42.678;23.332;2022-12-18T21:14:30;96431.44;;;20.27;100.00
76834;BME280;65793;42.678;23.332;2022-12-18T21:17:34;96428.78;;;20.27;100.00
76834;BME280;65793;42.678;23.332;2022-12-18T21:20:36;96440.06;;;20.29;100.00
76834;BME280;65793;42.678;23.332;2022-12-18T21:23:38;96430.41;;;20.28;100.00
76834;BME280;65793;42.678;23.332;2022-12-18T21:26:44;96433.31;;;20.27;100.00
76834;BME280;65793;42.678;23.332;2022-12-18T21:29:47;96426.91;;;20.28;100.00
76834;BME280;65793;42.678;23.332;2022-12-18T21:32:50;96436.47;;;20.24;100.00
76834;BME280;65793;42.678;23.332;2022-12-18T21:35:52;96426.09;;;20.27;100.00
76834;BME280;65793;42.678;23.332;2022-12-18T21:38:55;96433.66;;;20.31;100.00
76834;BME280;65793;42.678;23.332;2022-12-18T21:41:57;96437.50;;;20.35;100.00
76834;BME280;65793;42.678;23.332;2022-12-18T21:45:16;96430.47;;;20.34;100.00
76834;BME280;65793;42.678;23.332;2022-12-18T21:48:20;96430.47;;;20.34;100.00
76834;BME280;65793;42.678;23.332;2022-12-18T21:51:22;96432.34;;;20.33;100.00
76834;BME280;65793;42.678;23.332;2022-12-18T21:54:25;96433.78;;;20.36;100.00
76834;BME280;65793;42.678;23.332;2022-12-18T21:57:27;96435.84;;;20.34;100.00
76834;BME280;65793;42.678;23.332;2022-12-18T22:00:29;96435.03;;;20.33;100.00
76834;BME280;65793;42.678;23.332;2022-12-18T22:03:33;96440.38;;;20.33;100.00
76834;BME280;65793;42.678;23.332;2022-12-18T22:06:35;96439.81;;;20.31;100.00
76834;BME280;65793;42.678;23.332;2022-12-18T22:09:37;96441.13;;;20.28;100.00
76834;BME280;65793;42.678;23.332;2022-12-18T22:12:39;96434.94;;;20.28;100.00